KNMM

Naval Air Station Meridian

Airport
ICAO code
KNMM
Summary
ICAO Region
NAM
ICAO Territory
Location

Meridian, Mississippi

Serving
Meidian
Coordinates
32° 33' 8" N , 88° 33' 20" W
KCC
Airport LOS
Parallel Runway Operation
Metar
Observation
KNMM 070956Z AUTO 00000KT 10SM CLR 12/11 A3014 RMK AO2 VIS 1 SOUTH SLP216 T01220106 CHINO SOUTH $
Station
Meridian, Meridian Naval Air Station - McCain Field
Date/Time
2022-10-07 09:56:00
Wind direction
Wind speed
00 kts
Lowest cloud amount
n/a
Temperature
12.2°C
Dew point
10.6°C
Humidity
89%
Weather condition
n/a

Naval Air Station Meridian, or NAS Meridian, is a military airport located 18 km northeast of Meridian, a city in Lauderdale County, Mississippi.

Climatology

Humid “subtropical” climate (Köppen climate classification Cfa) - characterized by hot, humid summers and cool winters. Significant amounts of precipitation occur in all seasons in most areas. Winter rainfall (and sometimes snowfall) is associated with large storms that the westerlies steer from west to east. Most summer rainfall occurs during thunderstorms and occasional tropical storms (hurricanes).

Runways

Designator Length Width Surface Rops
10/28 1951 61 CON No/No
01L/19R 2439 61 CON No/No
01R/19L 2439 61 CON No/No

Airport map

Aerial View

SKYbrary Partners:

Safety knowledge contributed by: